sensor_id;sensor_type;location;lat;lon;timestamp;P1;durP1;ratioP1;P2;durP2;ratioP2
27804;SDS011;15183;51.350;11.102;2023-04-03T00:00:58;4.82;;;1.67;;
27804;SDS011;15183;51.350;11.102;2023-04-03T00:03:25;5.60;;;1.30;;
27804;SDS011;15183;51.350;11.102;2023-04-03T00:05:51;9.10;;;2.20;;
27804;SDS011;15183;51.350;11.102;2023-04-03T00:08:18;4.10;;;1.48;;
27804;SDS011;15183;51.350;11.102;2023-04-03T00:10:45;8.25;;;1.63;;
27804;SDS011;15183;51.350;11.102;2023-04-03T00:13:11;4.60;;;1.73;;
27804;SDS011;15183;51.350;11.102;2023-04-03T00:15:38;8.88;;;2.10;;
27804;SDS011;15183;51.350;11.102;2023-04-03T00:18:05;5.00;;;1.65;;
27804;SDS011;15183;51.350;11.102;2023-04-03T00:20:32;7.28;;;1.77;;
27804;SDS011;15183;51.350;11.102;2023-04-03T00:22:59;5.60;;;1.20;;
27804;SDS011;15183;51.350;11.102;2023-04-03T00:25:26;4.47;;;1.23;;
27804;SDS011;15183;51.350;11.102;2023-04-03T00:27:52;5.72;;;1.40;;
27804;SDS011;15183;51.350;11.102;2023-04-03T00:30:20;5.30;;;1.60;;
27804;SDS011;15183;51.350;11.102;2023-04-03T00:32:48;7.07;;;2.42;;
27804;SDS011;15183;51.350;11.102;2023-04-03T00:35:16;6.35;;;1.63;;
27804;SDS011;15183;51.350;11.102;2023-04-03T00:37:44;6.93;;;2.10;;
27804;SDS011;15183;51.350;11.102;2023-04-03T00:40:11;9.20;;;1.73;;
27804;SDS011;15183;51.350;11.102;2023-04-03T00:42:40;4.28;;;2.13;;
27804;SDS011;15183;51.350;11.102;2023-04-03T00:47:44;9.63;;;1.60;;
27804;SDS011;15183;51.350;11.102;2023-04-03T00:50:11;4.38;;;2.13;;
27804;SDS011;15183;51.350;11.102;2023-04-03T00:52:37;8.88;;;2.13;;
27804;SDS011;15183;51.350;11.102;2023-04-03T00:55:05;7.93;;;1.65;;
27804;SDS011;15183;51.350;11.102;2023-04-03T00:57:34;5.75;;;1.52;;
27804;SDS011;15183;51.350;11.102;2023-04-03T01:00:03;8.27;;;1.42;;
27804;SDS011;15183;51.350;11.102;2023-04-03T01:02:36;3.63;;;1.43;;
27804;SDS011;15183;51.350;11.102;2023-04-03T01:05:03;5.97;;;1.60;;
27804;SDS011;15183;51.350;11.102;2023-04-03T01:07:30;6.22;;;1.58;;
27804;SDS011;15183;51.350;11.102;2023-04-03T01:09:58;6.38;;;1.85;;
27804;SDS011;15183;51.350;11.102;2023-04-03T01:12:30;5.65;;;1.90;;
27804;SDS011;15183;51.350;11.102;2023-04-03T01:15:13;7.47;;;1.65;;
27804;SDS011;15183;51.350;11.102;2023-04-03T01:17:49;6.05;;;1.70;;
27804;SDS011;15183;51.350;11.102;2023-04-03T01:26:04;6.93;;;1.52;;
27804;SDS011;15183;51.350;11.102;2023-04-03T01:28:32;8.52;;;1.70;;
27804;SDS011;15183;51.350;11.102;2023-04-03T01:34:04;7.78;;;2.10;;
27804;SDS011;15183;51.350;11.102;2023-04-03T01:36:31;6.60;;;2.20;;
27804;SDS011;15183;51.350;11.102;2023-04-03T01:38:58;7.20;;;2.45;;
27804;SDS011;15183;51.350;11.102;2023-04-03T01:41:26;5.35;;;1.95;;
27804;SDS011;15183;51.350;11.102;2023-04-03T01:43:54;5.30;;;1.60;;
27804;SDS011;15183;51.350;11.102;2023-04-03T01:46:20;4.15;;;1.60;;
27804;SDS011;15183;51.350;11.102;2023-04-03T01:48:47;6.93;;;2.00;;
27804;SDS011;15183;51.350;11.102;2023-04-03T01:51:14;4.35;;;1.80;;
27804;SDS011;15183;51.350;11.102;2023-04-03T01:53:41;6.50;;;1.83;;
27804;SDS011;15183;51.350;11.102;2023-04-03T01:56:08;7.57;;;2.28;;
27804;SDS011;15183;51.350;11.102;2023-04-03T01:58:35;8.00;;;3.05;;
27804;SDS011;15183;51.350;11.102;2023-04-03T02:01:02;8.30;;;2.97;;
27804;SDS011;15183;51.350;11.102;2023-04-03T02:03:28;6.18;;;1.90;;
27804;SDS011;15183;51.350;11.102;2023-04-03T02:05:55;6.97;;;1.67;;
27804;SDS011;15183;51.350;11.102;2023-04-03T02:08:21;5.18;;;1.58;;
27804;SDS011;15183;51.350;11.102;2023-04-03T02:10:48;3.00;;;1.30;;
27804;SDS011;15183;51.350;11.102;2023-04-03T02:13:16;5.07;;;1.60;;
27804;SDS011;15183;51.350;11.102;2023-04-03T02:15:43;6.50;;;1.80;;
27804;SDS011;15183;51.350;11.102;2023-04-03T02:18:11;4.57;;;1.27;;
27804;SDS011;15183;51.350;11.102;2023-04-03T02:20:37;5.40;;;1.45;;
27804;SDS011;15183;51.350;11.102;2023-04-03T02:23:04;4.78;;;1.27;;
27804;SDS011;15183;51.350;11.102;2023-04-03T02:25:31;5.45;;;1.80;;
27804;SDS011;15183;51.350;11.102;2023-04-03T02:27:58;8.05;;;1.60;;
27804;SDS011;15183;51.350;11.102;2023-04-03T02:30:25;6.13;;;1.77;;
27804;SDS011;15183;51.350;11.102;2023-04-03T02:32:52;5.38;;;1.80;;
27804;SDS011;15183;51.350;11.102;2023-04-03T02:35:18;6.40;;;1.77;;
27804;SDS011;15183;51.350;11.102;2023-04-03T02:37:45;4.85;;;2.15;;
27804;SDS011;15183;51.350;11.102;2023-04-03T02:40:12;7.45;;;1.73;;
27804;SDS011;15183;51.350;11.102;2023-04-03T02:42:38;6.75;;;1.60;;
27804;SDS011;15183;51.350;11.102;2023-04-03T02:45:05;9.25;;;1.70;;
27804;SDS011;15183;51.350;11.102;2023-04-03T02:47:32;7.10;;;2.03;;
27804;SDS011;15183;51.350;11.102;2023-04-03T02:49:58;5.05;;;1.83;;
27804;SDS011;15183;51.350;11.102;2023-04-03T02:52:25;5.32;;;1.52;;
27804;SDS011;15183;51.350;11.102;2023-04-03T02:54:51;5.53;;;1.60;;
27804;SDS011;15183;51.350;11.102;2023-04-03T02:57:18;5.65;;;1.88;;
27804;SDS011;15183;51.350;11.102;2023-04-03T02:59:45;5.90;;;1.77;;
27804;SDS011;15183;51.350;11.102;2023-04-03T03:02:11;8.63;;;1.70;;
27804;SDS011;15183;51.350;11.102;2023-04-03T03:04:38;6.70;;;2.30;;
27804;SDS011;15183;51.350;11.102;2023-04-03T03:07:04;7.47;;;1.80;;
27804;SDS011;15183;51.350;11.102;2023-04-03T03:09:31;6.60;;;1.98;;
27804;SDS011;15183;51.350;11.102;2023-04-03T03:11:58;4.65;;;1.63;;
27804;SDS011;15183;51.350;11.102;2023-04-03T03:14:24;11.88;;;1.67;;
27804;SDS011;15183;51.350;11.102;2023-04-03T03:16:50;7.72;;;2.03;;
27804;SDS011;15183;51.350;11.102;2023-04-03T03:19:17;5.15;;;1.58;;
27804;SDS011;15183;51.350;11.102;2023-04-03T03:21:43;8.82;;;1.73;;
27804;SDS011;15183;51.350;11.102;2023-04-03T03:24:10;7.47;;;1.90;;
27804;SDS011;15183;51.350;11.102;2023-04-03T03:26:37;5.53;;;1.88;;
27804;SDS011;15183;51.350;11.102;2023-04-03T03:29:03;4.88;;;1.80;;
27804;SDS011;15183;51.350;11.102;2023-04-03T03:31:30;6.72;;;2.05;;
27804;SDS011;15183;51.350;11.102;2023-04-03T03:33:56;6.20;;;1.58;;
27804;SDS011;15183;51.350;11.102;2023-04-03T03:36:23;6.80;;;2.05;;
27804;SDS011;15183;51.350;11.102;2023-04-03T03:38:49;5.63;;;1.85;;
27804;SDS011;15183;51.350;11.102;2023-04-03T03:41:16;6.97;;;2.08;;
27804;SDS011;15183;51.350;11.102;2023-04-03T03:43:42;2.90;;;1.90;;
27804;SDS011;15183;51.350;11.102;2023-04-03T03:46:08;10.73;;;2.33;;
27804;SDS011;15183;51.350;11.102;2023-04-03T03:48:35;4.30;;;1.67;;
27804;SDS011;15183;51.350;11.102;2023-04-03T03:51:01;6.22;;;1.88;;
27804;SDS011;15183;51.350;11.102;2023-04-03T03:53:28;5.57;;;1.92;;
27804;SDS011;15183;51.350;11.102;2023-04-03T03:55:54;7.95;;;1.77;;
27804;SDS011;15183;51.350;11.102;2023-04-03T03:58:21;6.18;;;1.58;;
27804;SDS011;15183;51.350;11.102;2023-04-03T04:00:47;8.40;;;2.25;;
27804;SDS011;15183;51.350;11.102;2023-04-03T04:03:13;10.93;;;2.35;;
27804;SDS011;15183;51.350;11.102;2023-04-03T04:05:40;8.52;;;1.85;;
27804;SDS011;15183;51.350;11.102;2023-04-03T04:08:06;5.45;;;1.70;;
27804;SDS011;15183;51.350;11.102;2023-04-03T04:10:33;7.95;;;1.63;;
27804;SDS011;15183;51.350;11.102;2023-04-03T04:13:01;5.43;;;2.08;;
27804;SDS011;15183;51.350;11.102;2023-04-03T04:15:27;12.10;;;2.28;;
27804;SDS011;15183;51.350;11.102;2023-04-03T04:17:54;5.25;;;1.48;;
27804;SDS011;15183;51.350;11.102;2023-04-03T04:20:21;8.68;;;2.75;;
27804;SDS011;15183;51.350;11.102;2023-04-03T04:22:47;10.32;;;1.75;;
27804;SDS011;15183;51.350;11.102;2023-04-03T04:25:14;9.90;;;2.90;;
27804;SDS011;15183;51.350;11.102;2023-04-03T04:27:40;5.85;;;2.58;;
27804;SDS011;15183;51.350;11.102;2023-04-03T04:30:07;6.05;;;2.05;;
27804;SDS011;15183;51.350;11.102;2023-04-03T04:32:35;3.92;;;2.13;;
27804;SDS011;15183;51.350;11.102;2023-04-03T04:35:01;8.85;;;1.60;;
27804;SDS011;15183;51.350;11.102;2023-04-03T04:37:29;8.65;;;2.78;;
27804;SDS011;15183;51.350;11.102;2023-04-03T04:39:55;9.88;;;2.10;;
27804;SDS011;15183;51.350;11.102;2023-04-03T04:42:22;7.38;;;2.80;;
27804;SDS011;15183;51.350;11.102;2023-04-03T04:44:48;5.95;;;2.05;;
27804;SDS011;15183;51.350;11.102;2023-04-03T04:47:15;7.70;;;2.90;;
27804;SDS011;15183;51.350;11.102;2023-04-03T04:49:42;6.47;;;2.28;;
27804;SDS011;15183;51.350;11.102;2023-04-03T04:52:08;7.78;;;2.40;;
27804;SDS011;15183;51.350;11.102;2023-04-03T04:54:35;8.10;;;2.70;;
27804;SDS011;15183;51.350;11.102;2023-04-03T04:57:01;8.38;;;3.30;;
27804;SDS011;15183;51.350;11.102;2023-04-03T04:59:28;9.80;;;4.22;;
27804;SDS011;15183;51.350;11.102;2023-04-03T05:01:54;9.85;;;4.20;;
27804;SDS011;15183;51.350;11.102;2023-04-03T05:04:21;9.30;;;3.88;;
27804;SDS011;15183;51.350;11.102;2023-04-03T05:06:47;8.35;;;3.53;;
27804;SDS011;15183;51.350;11.102;2023-04-03T05:09:13;12.38;;;5.65;;
27804;SDS011;15183;51.350;11.102;2023-04-03T05:11:40;12.18;;;4.00;;
27804;SDS011;15183;51.350;11.102;2023-04-03T05:14:06;10.23;;;3.38;;
27804;SDS011;15183;51.350;11.102;2023-04-03T05:16:33;7.82;;;3.83;;
27804;SDS011;15183;51.350;11.102;2023-04-03T05:19:00;8.40;;;3.28;;
27804;SDS011;15183;51.350;11.102;2023-04-03T05:21:26;9.90;;;3.35;;
27804;SDS011;15183;51.350;11.102;2023-04-03T05:23:58;7.60;;;2.65;;
27804;SDS011;15183;51.350;11.102;2023-04-03T05:26:30;6.50;;;3.25;;
27804;SDS011;15183;51.350;11.102;2023-04-03T05:28:57;6.30;;;2.45;;
27804;SDS011;15183;51.350;11.102;2023-04-03T05:31:23;6.47;;;3.00;;
27804;SDS011;15183;51.350;11.102;2023-04-03T05:33:50;9.25;;;3.67;;
27804;SDS011;15183;51.350;11.102;2023-04-03T05:36:16;11.98;;;3.10;;
27804;SDS011;15183;51.350;11.102;2023-04-03T05:38:43;12.77;;;5.65;;
27804;SDS011;15183;51.350;11.102;2023-04-03T05:41:09;7.07;;;2.97;;
27804;SDS011;15183;51.350;11.102;2023-04-03T05:43:36;6.65;;;3.95;;
27804;SDS011;15183;51.350;11.102;2023-04-03T05:46:08;9.85;;;4.03;;
27804;SDS011;15183;51.350;11.102;2023-04-03T05:48:38;31.08;;;14.88;;
27804;SDS011;15183;51.350;11.102;2023-04-03T05:51:05;18.20;;;8.18;;
27804;SDS011;15183;51.350;11.102;2023-04-03T05:53:34;17.75;;;9.48;;
27804;SDS011;15183;51.350;11.102;2023-04-03T05:56:05;12.85;;;7.30;;
27804;SDS011;15183;51.350;11.102;2023-04-03T05:58:31;5.15;;;3.33;;
27804;SDS011;15183;51.350;11.102;2023-04-03T06:00:57;10.60;;;5.75;;
27804;SDS011;15183;51.350;11.102;2023-04-03T06:03:24;11.02;;;5.68;;
27804;SDS011;15183;51.350;11.102;2023-04-03T06:05:51;9.40;;;2.80;;
27804;SDS011;15183;51.350;11.102;2023-04-03T06:08:17;7.68;;;2.63;;
27804;SDS011;15183;51.350;11.102;2023-04-03T06:10:44;8.00;;;3.78;;
27804;SDS011;15183;51.350;11.102;2023-04-03T06:13:11;8.48;;;3.40;;
27804;SDS011;15183;51.350;11.102;2023-04-03T06:15:38;8.02;;;2.90;;
27804;SDS011;15183;51.350;11.102;2023-04-03T06:18:05;6.53;;;2.08;;
27804;SDS011;15183;51.350;11.102;2023-04-03T06:20:32;4.30;;;1.60;;
27804;SDS011;15183;51.350;11.102;2023-04-03T06:22:58;3.40;;;1.40;;
27804;SDS011;15183;51.350;11.102;2023-04-03T06:25:25;4.82;;;1.20;;
27804;SDS011;15183;51.350;11.102;2023-04-03T06:27:52;5.47;;;2.35;;
27804;SDS011;15183;51.350;11.102;2023-04-03T06:30:20;3.85;;;1.33;;
27804;SDS011;15183;51.350;11.102;2023-04-03T06:32:47;2.60;;;1.35;;
27804;SDS011;15183;51.350;11.102;2023-04-03T06:35:14;6.20;;;1.80;;
27804;SDS011;15183;51.350;11.102;2023-04-03T06:37:40;5.15;;;1.88;;
27804;SDS011;15183;51.350;11.102;2023-04-03T06:40:09;3.35;;;1.38;;
27804;SDS011;15183;51.350;11.102;2023-04-03T06:42:46;4.80;;;1.67;;
27804;SDS011;15183;51.350;11.102;2023-04-03T06:45:12;8.25;;;1.40;;
27804;SDS011;15183;51.350;11.102;2023-04-03T06:47:39;4.32;;;1.48;;
27804;SDS011;15183;51.350;11.102;2023-04-03T06:50:06;3.50;;;1.20;;
27804;SDS011;15183;51.350;11.102;2023-04-03T06:52:34;5.40;;;1.50;;
27804;SDS011;15183;51.350;11.102;2023-04-03T06:55:00;4.43;;;1.33;;
27804;SDS011;15183;51.350;11.102;2023-04-03T06:57:28;4.57;;;1.35;;
27804;SDS011;15183;51.350;11.102;2023-04-03T06:59:55;4.28;;;1.20;;
27804;SDS011;15183;51.350;11.102;2023-04-03T07:02:22;6.32;;;1.60;;
27804;SDS011;15183;51.350;11.102;2023-04-03T07:04:48;5.50;;;1.38;;
27804;SDS011;15183;51.350;11.102;2023-04-03T07:07:15;4.43;;;1.23;;
27804;SDS011;15183;51.350;11.102;2023-04-03T07:09:43;5.18;;;1.50;;
27804;SDS011;15183;51.350;11.102;2023-04-03T07:12:09;4.35;;;1.17;;
27804;SDS011;15183;51.350;11.102;2023-04-03T07:14:36;6.40;;;1.20;;
27804;SDS011;15183;51.350;11.102;2023-04-03T07:17:02;3.72;;;1.40;;
27804;SDS011;15183;51.350;11.102;2023-04-03T07:19:29;6.65;;;1.35;;
27804;SDS011;15183;51.350;11.102;2023-04-03T07:21:56;6.35;;;1.42;;
27804;SDS011;15183;51.350;11.102;2023-04-03T07:24:22;7.18;;;2.13;;
27804;SDS011;15183;51.350;11.102;2023-04-03T07:26:52;5.03;;;1.42;;
27804;SDS011;15183;51.350;11.102;2023-04-03T07:29:18;5.20;;;1.55;;
27804;SDS011;15183;51.350;11.102;2023-04-03T07:31:47;8.00;;;1.30;;
27804;SDS011;15183;51.350;11.102;2023-04-03T07:34:13;5.13;;;1.38;;
27804;SDS011;15183;51.350;11.102;2023-04-03T07:36:40;5.97;;;1.60;;
27804;SDS011;15183;51.350;11.102;2023-04-03T07:39:07;5.03;;;1.45;;
27804;SDS011;15183;51.350;11.102;2023-04-03T07:41:33;8.02;;;1.50;;
27804;SDS011;15183;51.350;11.102;2023-04-03T07:44:00;5.78;;;1.23;;
27804;SDS011;15183;51.350;11.102;2023-04-03T07:46:26;4.68;;;1.55;;
27804;SDS011;15183;51.350;11.102;2023-04-03T07:48:53;6.38;;;1.00;;
27804;SDS011;15183;51.350;11.102;2023-04-03T07:51:19;4.95;;;1.33;;
27804;SDS011;15183;51.350;11.102;2023-04-03T07:53:46;2.83;;;1.13;;
27804;SDS011;15183;51.350;11.102;2023-04-03T07:56:12;2.42;;;1.30;;
27804;SDS011;15183;51.350;11.102;2023-04-03T07:58:39;5.32;;;1.10;;
27804;SDS011;15183;51.350;11.102;2023-04-03T08:01:05;2.80;;;1.00;;
27804;SDS011;15183;51.350;11.102;2023-04-03T08:03:32;7.18;;;1.35;;
27804;SDS011;15183;51.350;11.102;2023-04-03T08:06:02;6.05;;;1.35;;
27804;SDS011;15183;51.350;11.102;2023-04-03T08:08:30;3.97;;;1.05;;
27804;SDS011;15183;51.350;11.102;2023-04-03T08:10:57;2.80;;;1.02;;
27804;SDS011;15183;51.350;11.102;2023-04-03T08:13:28;5.65;;;0.85;;
27804;SDS011;15183;51.350;11.102;2023-04-03T08:15:56;2.47;;;1.00;;
27804;SDS011;15183;51.350;11.102;2023-04-03T08:18:23;9.55;;;2.20;;
27804;SDS011;15183;51.350;11.102;2023-04-03T08:20:51;4.75;;;1.23;;
27804;SDS011;15183;51.350;11.102;2023-04-03T08:23:18;3.75;;;1.20;;
27804;SDS011;15183;51.350;11.102;2023-04-03T08:25:44;4.18;;;1.27;;
27804;SDS011;15183;51.350;11.102;2023-04-03T08:28:11;4.63;;;1.98;;
27804;SDS011;15183;51.350;11.102;2023-04-03T08:30:41;4.22;;;1.40;;
27804;SDS011;15183;51.350;11.102;2023-04-03T08:33:08;4.63;;;1.77;;
27804;SDS011;15183;51.350;11.102;2023-04-03T08:35:39;2.97;;;1.20;;
27804;SDS011;15183;51.350;11.102;2023-04-03T08:38:07;6.82;;;1.63;;
27804;SDS011;15183;51.350;11.102;2023-04-03T08:40:35;6.30;;;1.25;;
27804;SDS011;15183;51.350;11.102;2023-04-03T08:46:03;6.88;;;1.90;;
27804;SDS011;15183;51.350;11.102;2023-04-03T08:48:35;4.28;;;1.50;;
27804;SDS011;15183;51.350;11.102;2023-04-03T08:51:10;3.63;;;1.20;;
27804;SDS011;15183;51.350;11.102;2023-04-03T08:53:55;6.75;;;1.75;;
27804;SDS011;15183;51.350;11.102;2023-04-03T08:56:29;4.07;;;1.20;;
27804;SDS011;15183;51.350;11.102;2023-04-03T08:59:04;6.45;;;1.98;;
27804;SDS011;15183;51.350;11.102;2023-04-03T09:01:41;4.60;;;1.00;;
27804;SDS011;15183;51.350;11.102;2023-04-03T09:04:13;5.95;;;1.20;;
27804;SDS011;15183;51.350;11.102;2023-04-03T09:06:45;8.63;;;1.60;;
27804;SDS011;15183;51.350;11.102;2023-04-03T09:09:25;4.30;;;1.10;;
27804;SDS011;15183;51.350;11.102;2023-04-03T09:14:59;7.75;;;1.27;;
27804;SDS011;15183;51.350;11.102;2023-04-03T09:23:34;3.75;;;1.20;;
27804;SDS011;15183;51.350;11.102;2023-04-03T09:26:13;5.80;;;1.10;;
27804;SDS011;15183;51.350;11.102;2023-04-03T09:28:58;4.28;;;1.30;;
27804;SDS011;15183;51.350;11.102;2023-04-03T09:31:31;3.33;;;1.52;;
27804;SDS011;15183;51.350;11.102;2023-04-03T09:34:12;6.28;;;1.50;;
27804;SDS011;15183;51.350;11.102;2023-04-03T09:36:53;5.75;;;1.50;;
27804;SDS011;15183;51.350;11.102;2023-04-03T09:39:23;4.43;;;1.25;;
27804;SDS011;15183;51.350;11.102;2023-04-03T09:45:02;5.03;;;1.00;;
27804;SDS011;15183;51.350;11.102;2023-04-03T09:47:32;2.58;;;1.20;;
27804;SDS011;15183;51.350;11.102;2023-04-03T09:52:43;4.22;;;1.20;;
27804;SDS011;15183;51.350;11.102;2023-04-03T09:55:20;2.25;;;1.00;;
27804;SDS011;15183;51.350;11.102;2023-04-03T09:57:58;3.85;;;1.10;;
27804;SDS011;15183;51.350;11.102;2023-04-03T10:00:28;3.28;;;1.00;;
27804;SDS011;15183;51.350;11.102;2023-04-03T10:03:04;4.32;;;1.00;;
27804;SDS011;15183;51.350;11.102;2023-04-03T10:05:48;4.38;;;1.05;;
27804;SDS011;15183;51.350;11.102;2023-04-03T10:10:44;2.83;;;1.05;;
27804;SDS011;15183;51.350;11.102;2023-04-03T10:13:14;3.92;;;1.10;;
27804;SDS011;15183;51.350;11.102;2023-04-03T10:15:46;4.65;;;0.90;;
27804;SDS011;15183;51.350;11.102;2023-04-03T10:18:45;3.70;;;1.10;;
27804;SDS011;15183;51.350;11.102;2023-04-03T10:24:36;3.17;;;1.00;;
27804;SDS011;15183;51.350;11.102;2023-04-03T10:27:17;6.50;;;1.27;;
27804;SDS011;15183;51.350;11.102;2023-04-03T10:33:32;3.08;;;0.95;;
27804;SDS011;15183;51.350;11.102;2023-04-03T10:42:11;2.63;;;1.13;;
27804;SDS011;15183;51.350;11.102;2023-04-03T10:51:02;3.95;;;1.30;;
27804;SDS011;15183;51.350;11.102;2023-04-03T10:53:44;1.00;;;0.70;;
27804;SDS011;15183;51.350;11.102;2023-04-03T10:56:37;3.60;;;0.93;;
27804;SDS011;15183;51.350;11.102;2023-04-03T10:59:37;3.95;;;0.90;;
27804;SDS011;15183;51.350;11.102;2023-04-03T11:05:46;4.03;;;1.17;;
27804;SDS011;15183;51.350;11.102;2023-04-03T11:10:57;4.80;;;1.30;;
27804;SDS011;15183;51.350;11.102;2023-04-03T11:16:43;4.00;;;1.10;;
27804;SDS011;15183;51.350;11.102;2023-04-03T11:19:18;6.38;;;1.08;;
27804;SDS011;15183;51.350;11.102;2023-04-03T11:22:03;4.00;;;1.05;;
27804;SDS011;15183;51.350;11.102;2023-04-03T11:24:52;4.35;;;1.38;;
27804;SDS011;15183;51.350;11.102;2023-04-03T11:27:35;5.20;;;1.40;;
27804;SDS011;15183;51.350;11.102;2023-04-03T11:30:15;3.42;;;1.52;;
27804;SDS011;15183;51.350;11.102;2023-04-03T11:35:34;4.57;;;2.25;;
27804;SDS011;15183;51.350;11.102;2023-04-03T11:38:02;6.97;;;2.13;;
27804;SDS011;15183;51.350;11.102;2023-04-03T11:40:34;3.67;;;1.65;;
27804;SDS011;15183;51.350;11.102;2023-04-03T11:43:16;4.82;;;1.10;;
27804;SDS011;15183;51.350;11.102;2023-04-03T11:46:20;3.83;;;1.17;;
27804;SDS011;15183;51.350;11.102;2023-04-03T11:48:48;2.63;;;1.23;;
27804;SDS011;15183;51.350;11.102;2023-04-03T11:53:58;4.20;;;1.20;;
27804;SDS011;15183;51.350;11.102;2023-04-03T12:05:58;4.22;;;1.02;;
27804;SDS011;15183;51.350;11.102;2023-04-03T12:08:46;4.85;;;1.10;;
27804;SDS011;15183;51.350;11.102;2023-04-03T12:11:30;2.03;;;1.35;;
27804;SDS011;15183;51.350;11.102;2023-04-03T12:16:29;1.85;;;1.00;;
27804;SDS011;15183;51.350;11.102;2023-04-03T12:29:28;4.57;;;1.33;;
27804;SDS011;15183;51.350;11.102;2023-04-03T12:32:06;3.15;;;1.30;;
27804;SDS011;15183;51.350;11.102;2023-04-03T12:43:39;4.35;;;1.75;;
27804;SDS011;15183;51.350;11.102;2023-04-03T12:46:46;4.88;;;1.75;;
27804;SDS011;15183;51.350;11.102;2023-04-03T12:52:41;3.83;;;1.08;;
27804;SDS011;15183;51.350;11.102;2023-04-03T12:55:15;2.75;;;0.95;;
27804;SDS011;15183;51.350;11.102;2023-04-03T12:57:44;2.45;;;1.00;;
27804;SDS011;15183;51.350;11.102;2023-04-03T13:02:59;1.70;;;0.98;;
27804;SDS011;15183;51.350;11.102;2023-04-03T13:05:31;2.63;;;1.08;;
27804;SDS011;15183;51.350;11.102;2023-04-03T13:07:59;4.68;;;1.10;;
27804;SDS011;15183;51.350;11.102;2023-04-03T13:10:30;2.13;;;1.00;;
27804;SDS011;15183;51.350;11.102;2023-04-03T13:13:09;4.75;;;0.90;;
27804;SDS011;15183;51.350;11.102;2023-04-03T13:15:40;3.25;;;1.23;;
27804;SDS011;15183;51.350;11.102;2023-04-03T13:20:58;5.32;;;1.30;;
27804;SDS011;15183;51.350;11.102;2023-04-03T13:23:43;3.17;;;1.37;;
27804;SDS011;15183;51.350;11.102;2023-04-03T13:26:15;5.80;;;1.35;;
27804;SDS011;15183;51.350;11.102;2023-04-03T13:28:46;3.42;;;1.10;;
27804;SDS011;15183;51.350;11.102;2023-04-03T13:33:43;2.97;;;1.10;;
27804;SDS011;15183;51.350;11.102;2023-04-03T13:36:40;7.43;;;3.38;;
27804;SDS011;15183;51.350;11.102;2023-04-03T13:41:56;9.32;;;1.35;;
27804;SDS011;15183;51.350;11.102;2023-04-03T13:44:29;3.75;;;1.67;;
27804;SDS011;15183;51.350;11.102;2023-04-03T13:47:14;3.92;;;1.60;;
27804;SDS011;15183;51.350;11.102;2023-04-03T13:50:03;5.43;;;1.60;;
27804;SDS011;15183;51.350;11.102;2023-04-03T13:53:01;7.22;;;1.90;;
27804;SDS011;15183;51.350;11.102;2023-04-03T13:55:37;3.23;;;1.70;;
27804;SDS011;15183;51.350;11.102;2023-04-03T14:03:41;2.42;;;1.33;;
27804;SDS011;15183;51.350;11.102;2023-04-03T14:06:13;5.35;;;1.73;;
27804;SDS011;15183;51.350;11.102;2023-04-03T14:08:42;4.22;;;1.08;;
27804;SDS011;15183;51.350;11.102;2023-04-03T14:11:12;3.17;;;1.40;;
27804;SDS011;15183;51.350;11.102;2023-04-03T14:13:49;3.28;;;0.90;;
27804;SDS011;15183;51.350;11.102;2023-04-03T14:16:20;4.97;;;1.10;;
27804;SDS011;15183;51.350;11.102;2023-04-03T14:18:51;4.47;;;1.23;;
27804;SDS011;15183;51.350;11.102;2023-04-03T14:21:18;3.30;;;1.17;;
27804;SDS011;15183;51.350;11.102;2023-04-03T14:23:47;4.97;;;1.40;;
27804;SDS011;15183;51.350;11.102;2023-04-03T14:26:14;3.85;;;1.30;;
27804;SDS011;15183;51.350;11.102;2023-04-03T14:28:53;5.15;;;1.60;;
27804;SDS011;15183;51.350;11.102;2023-04-03T14:31:21;4.97;;;1.80;;
27804;SDS011;15183;51.350;11.102;2023-04-03T14:33:48;7.68;;;3.10;;
27804;SDS011;15183;51.350;11.102;2023-04-03T14:36:16;2.80;;;1.30;;
27804;SDS011;15183;51.350;11.102;2023-04-03T14:38:49;5.38;;;1.50;;
27804;SDS011;15183;51.350;11.102;2023-04-03T14:41:17;6.97;;;1.70;;
27804;SDS011;15183;51.350;11.102;2023-04-03T14:43:46;4.47;;;1.80;;
27804;SDS011;15183;51.350;11.102;2023-04-03T14:46:14;4.80;;;1.85;;
27804;SDS011;15183;51.350;11.102;2023-04-03T14:48:47;3.40;;;0.98;;
27804;SDS011;15183;51.350;11.102;2023-04-03T14:51:14;3.85;;;1.30;;
27804;SDS011;15183;51.350;11.102;2023-04-03T14:53:41;3.83;;;1.45;;
27804;SDS011;15183;51.350;11.102;2023-04-03T14:58:58;4.18;;;1.52;;
27804;SDS011;15183;51.350;11.102;2023-04-03T15:01:26;3.85;;;1.15;;
27804;SDS011;15183;51.350;11.102;2023-04-03T15:03:54;5.60;;;2.05;;
27804;SDS011;15183;51.350;11.102;2023-04-03T15:06:20;6.38;;;2.67;;
27804;SDS011;15183;51.350;11.102;2023-04-03T15:08:47;6.32;;;1.52;;
27804;SDS011;15183;51.350;11.102;2023-04-03T15:11:14;4.95;;;1.05;;
27804;SDS011;15183;51.350;11.102;2023-04-03T15:13:41;3.95;;;1.40;;
27804;SDS011;15183;51.350;11.102;2023-04-03T15:16:12;3.53;;;1.40;;
27804;SDS011;15183;51.350;11.102;2023-04-03T15:18:45;3.10;;;1.75;;
27804;SDS011;15183;51.350;11.102;2023-04-03T15:21:13;6.00;;;2.50;;
27804;SDS011;15183;51.350;11.102;2023-04-03T15:23:39;6.65;;;2.13;;
27804;SDS011;15183;51.350;11.102;2023-04-03T15:26:06;3.08;;;1.60;;
27804;SDS011;15183;51.350;11.102;2023-04-03T15:28:33;3.92;;;1.63;;
27804;SDS011;15183;51.350;11.102;2023-04-03T15:31:03;7.68;;;1.77;;
27804;SDS011;15183;51.350;11.102;2023-04-03T15:33:31;5.68;;;2.40;;
27804;SDS011;15183;51.350;11.102;2023-04-03T15:35:59;3.50;;;1.33;;
27804;SDS011;15183;51.350;11.102;2023-04-03T15:38:26;2.13;;;1.30;;
27804;SDS011;15183;51.350;11.102;2023-04-03T15:40:53;2.83;;;1.40;;
27804;SDS011;15183;51.350;11.102;2023-04-03T15:43:21;4.68;;;1.40;;
27804;SDS011;15183;51.350;11.102;2023-04-03T15:45:47;3.13;;;1.00;;
27804;SDS011;15183;51.350;11.102;2023-04-03T15:48:14;2.58;;;0.90;;
27804;SDS011;15183;51.350;11.102;2023-04-03T15:50:42;4.97;;;1.30;;
27804;SDS011;15183;51.350;11.102;2023-04-03T15:53:08;4.75;;;1.10;;
27804;SDS011;15183;51.350;11.102;2023-04-03T15:55:36;3.75;;;1.30;;
27804;SDS011;15183;51.350;11.102;2023-04-03T15:58:03;2.50;;;1.23;;
27804;SDS011;15183;51.350;11.102;2023-04-03T16:00:30;3.15;;;1.10;;
27804;SDS011;15183;51.350;11.102;2023-04-03T16:02:59;2.55;;;1.00;;
27804;SDS011;15183;51.350;11.102;2023-04-03T16:05:38;5.20;;;1.73;;
27804;SDS011;15183;51.350;11.102;2023-04-03T16:08:06;6.43;;;4.05;;
27804;SDS011;15183;51.350;11.102;2023-04-03T16:10:34;6.22;;;2.00;;
27804;SDS011;15183;51.350;11.102;2023-04-03T16:13:02;8.75;;;5.63;;
27804;SDS011;15183;51.350;11.102;2023-04-03T16:15:29;9.40;;;4.57;;
27804;SDS011;15183;51.350;11.102;2023-04-03T16:17:57;4.75;;;2.88;;
27804;SDS011;15183;51.350;11.102;2023-04-03T16:20:25;3.95;;;2.03;;
27804;SDS011;15183;51.350;11.102;2023-04-03T16:22:52;2.25;;;1.10;;
27804;SDS011;15183;51.350;11.102;2023-04-03T16:25:19;3.67;;;1.40;;
27804;SDS011;15183;51.350;11.102;2023-04-03T16:27:46;2.13;;;1.17;;
27804;SDS011;15183;51.350;11.102;2023-04-03T16:30:12;3.72;;;0.90;;
27804;SDS011;15183;51.350;11.102;2023-04-03T16:32:39;7.97;;;1.17;;
27804;SDS011;15183;51.350;11.102;2023-04-03T16:35:06;3.47;;;1.42;;
27804;SDS011;15183;51.350;11.102;2023-04-03T16:37:36;3.40;;;1.10;;
27804;SDS011;15183;51.350;11.102;2023-04-03T16:40:04;3.42;;;1.48;;
27804;SDS011;15183;51.350;11.102;2023-04-03T16:42:32;7.57;;;3.67;;
27804;SDS011;15183;51.350;11.102;2023-04-03T16:44:58;3.85;;;1.75;;
27804;SDS011;15183;51.350;11.102;2023-04-03T16:47:28;4.55;;;2.97;;